Historique des mesures à Cassis (13260), France
Quotidien Résumé Mai 7, 2020 Unités:  Métrique/US    US   Métrique
Quotidien Hebdomadaire Mensuel Annuel
  Maximum: Minimum: Moyenne:
Température: 88.5 °F /  31.4 °C 70 °F /  21.1 °C 78.4 °F /  25.8 °C
Point de rosée: 61 °F /  16.1 °C 50.5 °F /  10.3 °C 56.7 °F /  13.7 °C
Humidité: 59% 36% 48%
Vitesse du vent: 4.5mph /  7.2km/h - 1mph /  1.6km/h
Rafales: 7.1mph /  11.5km/h - -
Vent- - SSW
Pression: 30 in /  1016.0 hPa 29.9 in /  1014.0 hPa -
Précipitations: 0 in /  0.0 mm    
Historical Graphs
 
 
Mesures pour : Mai 7, 2020
Heure Temperature Point de rosée Pression Vent Vitesse du vent Rafales Humidité Pluie (par heure)
00:11 72 °F /  22.2 °C 55.4 °F /  13 °C 30in /  1014.8hPa Calm   1.4mph /  2.2km/h 56% 0in /  0.0mm
01:11 71.2 °F /  21.8 °C 55.8 °F /  13.2 °C 30in /  1014.7hPa Calm   0.9mph /  1.4km/h 58% 0in /  0.0mm
02:11 70.5 °F /  21.4 °C 55.6 °F /  13.1 °C 30in /  1015.0hPa Calm     59% 0in /  0.0mm
03:11 70 °F /  21.1 °C 55 °F /  12.8 °C 30in /  1014.4hPa Calm   1.6mph /  2.5km/h 59% 0in /  0.0mm
04:11 70.9 °F /  21.6 °C 54.3 °F /  12.4 °C 29.9in /  1014.1hPa Calm   1.4mph /  2.2km/h 56% 0in /  0.0mm
05:11 71.4 °F /  21.9 °C 52.9 °F /  11.6 °C 29.9in /  1014.1hPa Calm   2mph /  3.2km/h 52% 0in /  0.0mm
06:11 71.8 °F /  22.1 °C 51.6 °F /  10.9 °C 29.9in /  1014.0hPa Calm   1.4mph /  2.2km/h 49% 0in /  0.0mm
07:11 71.2 °F /  21.8 °C 50.5 °F /  10.3 °C 30in /  1014.5hPa Calm   0.7mph /  1.1km/h 48% 0in /  0.0mm
08:11 79.3 °F /  26.3 °C 54.9 °F /  12.7 °C 30in /  1014.8hPa NNW 1.4mph /  2.2km/h 2mph /  3.2km/h 43% 0in /  0.0mm
09:11 77.5 °F /  25.3 °C 58.1 °F /  14.5 °C 30in /  1015.0hPa NNW 2mph /  3.2km/h 3.6mph /  5.8km/h 51% 0in /  0.0mm
10:11 76.1 °F /  24.5 °C 58.3 °F /  14.6 °C 30in /  1015.4hPa NNW 4.5mph /  7.2km/h 4.5mph /  7.2km/h 54% 0in /  0.0mm
11:11 82 °F /  27.8 °C 61 °F /  16.1 °C 30in /  1015.4hPa SE 1.4mph /  2.2km/h 4.5mph /  7.2km/h 49% 0in /  0.0mm
12:11 87.1 °F /  30.6 °C 58.3 °F /  14.6 °C 30in /  1015.7hPa SSE 3.6mph /  5.8km/h 4.5mph /  7.2km/h 38% 0in /  0.0mm
13:11 88.5 °F /  31.4 °C 57.9 °F /  14.4 °C 30in /  1015.5hPa SE 1.1mph /  1.8km/h 6mph /  9.7km/h 36% 0in /  0.0mm
14:11 88 °F /  31.1 °C 59.2 °F /  15.1 °C 30in /  1015.5hPa SE 1.6mph /  2.5km/h 7.1mph /  11.5km/h 38% 0in /  0.0mm
15:11 87.1 °F /  30.6 °C 59.2 °F /  15.1 °C 30in /  1015.5hPa Calm   3.6mph /  5.8km/h 39% 0in /  0.0mm
16:11 86.5 °F /  30.3 °C 58.6 °F /  14.8 °C 30in /  1015.1hPa ESE 2.2mph /  3.6km/h 5.6mph /  9km/h 39% 0in /  0.0mm
17:11 84.7 °F /  29.3 °C 61 °F /  16.1 °C 30in /  1014.7hPa ESE 4mph /  6.5km/h 7.1mph /  11.5km/h 45% 0in /  0.0mm
18:11 83.8 °F /  28.8 °C 60.3 °F /  15.7 °C 30in /  1014.7hPa SE 2mph /  3.2km/h 3.8mph /  6.1km/h 45% 0in /  0.0mm
19:11 82.8 °F /  28.2 °C 60.4 °F /  15.8 °C 30in /  1014.5hPa Calm   4.9mph /  7.9km/h 47% 0in /  0.0mm
20:11 81.3 °F /  27.4 °C 57.9 °F /  14.4 °C 30in /  1014.3hPa Calm     45% 0in /  0.0mm
21:11 78.4 °F /  25.8 °C 58.3 °F /  14.6 °C 30in /  1014.8hPa Calm     50% 0in /  0.0mm
22:11 76.1 °F /  24.5 °C 53.2 °F /  11.8 °C 30in /  1015.5hPa Calm   1.1mph /  1.8km/h 45% 0in /  0.0mm
23:11 74.7 °F /  23.7 °C 50.5 °F /  10.3 °C 30in /  1016.0hPa Calm   1.1mph /  1.8km/h 43% 0in /  0.0mm
Observations météo à CASSIS
WU-History script by Weather Underground - 2 mb